sensor_id;sensor_type;location;lat;lon;timestamp;temperature;humidity
36186;DHT22;22228;53.222;7.446;2022-07-18T00:01:42;15.80;99.90
36186;DHT22;22228;53.222;7.446;2022-07-18T00:04:04;15.80;99.90
36186;DHT22;22228;53.222;7.446;2022-07-18T00:06:26;15.80;99.90
36186;DHT22;22228;53.222;7.446;2022-07-18T00:08:49;15.80;99.90
36186;DHT22;22228;53.222;7.446;2022-07-18T00:11:11;15.80;99.90
36186;DHT22;22228;53.222;7.446;2022-07-18T00:13:34;15.70;99.90
36186;DHT22;22228;53.222;7.446;2022-07-18T00:15:56;15.70;99.90
36186;DHT22;22228;53.222;7.446;2022-07-18T00:18:18;15.70;99.90
36186;DHT22;22228;53.222;7.446;2022-07-18T00:20:40;15.70;99.90
36186;DHT22;22228;53.222;7.446;2022-07-18T00:23:03;15.60;99.90
36186;DHT22;22228;53.222;7.446;2022-07-18T00:25:25;15.60;99.90
36186;DHT22;22228;53.222;7.446;2022-07-18T00:27:47;15.60;99.90
36186;DHT22;22228;53.222;7.446;2022-07-18T00:30:11;15.50;99.90
36186;DHT22;22228;53.222;7.446;2022-07-18T00:32:33;15.50;99.90
36186;DHT22;22228;53.222;7.446;2022-07-18T00:34:55;15.40;99.90
36186;DHT22;22228;53.222;7.446;2022-07-18T00:37:17;15.40;99.90
36186;DHT22;22228;53.222;7.446;2022-07-18T00:39:40;15.40;99.90
36186;DHT22;22228;53.222;7.446;2022-07-18T00:42:02;15.30;99.90
36186;DHT22;22228;53.222;7.446;2022-07-18T00:44:26;15.30;99.90
36186;DHT22;22228;53.222;7.446;2022-07-18T00:46:50;15.30;99.90
36186;DHT22;22228;53.222;7.446;2022-07-18T00:49:13;15.30;99.90
36186;DHT22;22228;53.222;7.446;2022-07-18T00:51:35;15.30;99.90
36186;DHT22;22228;53.222;7.446;2022-07-18T00:53:58;15.30;99.90
36186;DHT22;22228;53.222;7.446;2022-07-18T00:56:21;15.30;99.90
36186;DHT22;22228;53.222;7.446;2022-07-18T00:58:44;15.20;99.90
36186;DHT22;22228;53.222;7.446;2022-07-18T01:01:06;15.20;99.90
36186;DHT22;22228;53.222;7.446;2022-07-18T01:03:47;15.20;99.90
36186;DHT22;22228;53.222;7.446;2022-07-18T01:06:10;15.20;99.90
36186;DHT22;22228;53.222;7.446;2022-07-18T01:08:32;15.10;99.90
36186;DHT22;22228;53.222;7.446;2022-07-18T01:10:55;15.10;99.90
36186;DHT22;22228;53.222;7.446;2022-07-18T01:13:17;15.00;99.90
36186;DHT22;22228;53.222;7.446;2022-07-18T01:15:41;15.00;99.90
36186;DHT22;22228;53.222;7.446;2022-07-18T01:18:03;14.90;99.90
36186;DHT22;22228;53.222;7.446;2022-07-18T01:20:28;15.00;99.90
36186;DHT22;22228;53.222;7.446;2022-07-18T01:22:51;15.00;99.90
36186;DHT22;22228;53.222;7.446;2022-07-18T01:25:14;15.00;99.90
36186;DHT22;22228;53.222;7.446;2022-07-18T01:27:38;14.90;99.90
36186;DHT22;22228;53.222;7.446;2022-07-18T01:30:00;14.90;99.90
36186;DHT22;22228;53.222;7.446;2022-07-18T01:32:22;14.90;99.90
36186;DHT22;22228;53.222;7.446;2022-07-18T01:34:45;14.90;99.90
36186;DHT22;22228;53.222;7.446;2022-07-18T01:37:09;14.90;99.90
36186;DHT22;22228;53.222;7.446;2022-07-18T01:39:32;14.80;99.90
36186;DHT22;22228;53.222;7.446;2022-07-18T01:41:55;14.80;99.90
36186;DHT22;22228;53.222;7.446;2022-07-18T01:44:18;14.80;99.90
36186;DHT22;22228;53.222;7.446;2022-07-18T01:46:40;14.70;99.90
36186;DHT22;22228;53.222;7.446;2022-07-18T01:49:03;14.70;99.90
36186;DHT22;22228;53.222;7.446;2022-07-18T01:51:25;14.70;99.90
36186;DHT22;22228;53.222;7.446;2022-07-18T01:53:55;14.70;99.90
36186;DHT22;22228;53.222;7.446;2022-07-18T01:56:19;14.70;99.90
36186;DHT22;22228;53.222;7.446;2022-07-18T01:58:41;14.70;99.90
36186;DHT22;22228;53.222;7.446;2022-07-18T02:01:03;14.70;99.90
36186;DHT22;22228;53.222;7.446;2022-07-18T02:03:25;14.70;99.90
36186;DHT22;22228;53.222;7.446;2022-07-18T02:05:47;14.70;99.90
36186;DHT22;22228;53.222;7.446;2022-07-18T02:08:10;14.70;99.90
36186;DHT22;22228;53.222;7.446;2022-07-18T02:10:34;14.70;99.90
36186;DHT22;22228;53.222;7.446;2022-07-18T02:12:56;14.70;99.90
36186;DHT22;22228;53.222;7.446;2022-07-18T02:15:18;14.70;99.90
36186;DHT22;22228;53.222;7.446;2022-07-18T02:17:41;14.70;99.90
36186;DHT22;22228;53.222;7.446;2022-07-18T02:20:04;14.70;99.90
36186;DHT22;22228;53.222;7.446;2022-07-18T02:22:27;14.70;99.90
36186;DHT22;22228;53.222;7.446;2022-07-18T02:24:49;14.70;99.90
36186;DHT22;22228;53.222;7.446;2022-07-18T02:27:12;14.70;99.90
36186;DHT22;22228;53.222;7.446;2022-07-18T02:29:34;14.70;99.90
36186;DHT22;22228;53.222;7.446;2022-07-18T02:31:56;14.80;99.90
36186;DHT22;22228;53.222;7.446;2022-07-18T02:34:18;14.80;99.90
36186;DHT22;22228;53.222;7.446;2022-07-18T02:36:41;14.80;99.90
36186;DHT22;22228;53.222;7.446;2022-07-18T02:39:03;14.80;99.90
36186;DHT22;22228;53.222;7.446;2022-07-18T02:41:25;14.80;99.90
36186;DHT22;22228;53.222;7.446;2022-07-18T02:43:51;14.80;99.90
36186;DHT22;22228;53.222;7.446;2022-07-18T02:46:14;14.90;99.90
36186;DHT22;22228;53.222;7.446;2022-07-18T02:48:36;14.90;99.90
36186;DHT22;22228;53.222;7.446;2022-07-18T02:50:58;15.00;99.90
36186;DHT22;22228;53.222;7.446;2022-07-18T02:53:20;15.00;99.90
36186;DHT22;22228;53.222;7.446;2022-07-18T02:55:44;15.00;99.90
36186;DHT22;22228;53.222;7.446;2022-07-18T02:58:05;14.90;99.90
36186;DHT22;22228;53.222;7.446;2022-07-18T03:00:29;14.90;99.90
36186;DHT22;22228;53.222;7.446;2022-07-18T03:02:51;14.90;99.90
36186;DHT22;22228;53.222;7.446;2022-07-18T03:05:13;14.80;99.90
36186;DHT22;22228;53.222;7.446;2022-07-18T03:07:35;14.80;99.90
36186;DHT22;22228;53.222;7.446;2022-07-18T03:09:57;14.80;99.90
36186;DHT22;22228;53.222;7.446;2022-07-18T03:12:20;14.70;99.90
36186;DHT22;22228;53.222;7.446;2022-07-18T03:14:42;14.70;99.90
36186;DHT22;22228;53.222;7.446;2022-07-18T03:17:05;14.70;99.90
36186;DHT22;22228;53.222;7.446;2022-07-18T03:19:28;14.60;99.90
36186;DHT22;22228;53.222;7.446;2022-07-18T03:21:50;14.60;99.90
36186;DHT22;22228;53.222;7.446;2022-07-18T03:24:12;14.50;99.90
36186;DHT22;22228;53.222;7.446;2022-07-18T03:26:35;14.50;99.90
36186;DHT22;22228;53.222;7.446;2022-07-18T03:28:57;14.50;99.90
36186;DHT22;22228;53.222;7.446;2022-07-18T03:31:19;14.40;99.90
36186;DHT22;22228;53.222;7.446;2022-07-18T03:33:43;14.40;99.90
36186;DHT22;22228;53.222;7.446;2022-07-18T03:36:05;14.40;99.90
36186;DHT22;22228;53.222;7.446;2022-07-18T03:38:27;14.40;99.90
36186;DHT22;22228;53.222;7.446;2022-07-18T03:40:49;14.30;99.90
36186;DHT22;22228;53.222;7.446;2022-07-18T03:43:11;14.40;99.90
36186;DHT22;22228;53.222;7.446;2022-07-18T03:45:33;14.40;99.90
36186;DHT22;22228;53.222;7.446;2022-07-18T03:47:55;14.40;99.90
36186;DHT22;22228;53.222;7.446;2022-07-18T03:50:18;14.50;99.90
36186;DHT22;22228;53.222;7.446;2022-07-18T03:52:40;14.50;99.90
36186;DHT22;22228;53.222;7.446;2022-07-18T03:55:03;14.50;99.90
36186;DHT22;22228;53.222;7.446;2022-07-18T03:57:25;14.50;99.90
36186;DHT22;22228;53.222;7.446;2022-07-18T03:59:47;14.50;99.90
36186;DHT22;22228;53.222;7.446;2022-07-18T04:02:09;14.60;99.90
36186;DHT22;22228;53.222;7.446;2022-07-18T04:04:31;14.60;99.90
36186;DHT22;22228;53.222;7.446;2022-07-18T04:06:54;14.60;99.90
36186;DHT22;22228;53.222;7.446;2022-07-18T04:09:19;14.70;99.90
36186;DHT22;22228;53.222;7.446;2022-07-18T04:11:41;14.80;99.90
36186;DHT22;22228;53.222;7.446;2022-07-18T04:14:04;14.80;99.90
36186;DHT22;22228;53.222;7.446;2022-07-18T04:16:26;14.90;99.90
36186;DHT22;22228;53.222;7.446;2022-07-18T04:18:48;14.90;99.90
36186;DHT22;22228;53.222;7.446;2022-07-18T04:21:10;14.90;99.90
36186;DHT22;22228;53.222;7.446;2022-07-18T04:23:33;14.90;99.90
36186;DHT22;22228;53.222;7.446;2022-07-18T04:25:56;15.00;99.90
36186;DHT22;22228;53.222;7.446;2022-07-18T04:28:18;15.00;99.90
36186;DHT22;22228;53.222;7.446;2022-07-18T04:30:43;15.00;99.90
36186;DHT22;22228;53.222;7.446;2022-07-18T04:33:06;15.00;99.90
36186;DHT22;22228;53.222;7.446;2022-07-18T04:35:29;15.00;99.90
36186;DHT22;22228;53.222;7.446;2022-07-18T04:37:52;15.00;99.90
36186;DHT22;22228;53.222;7.446;2022-07-18T04:40:15;15.00;99.90
36186;DHT22;22228;53.222;7.446;2022-07-18T04:42:38;15.10;99.90
36186;DHT22;22228;53.222;7.446;2022-07-18T04:45:00;15.10;99.90
36186;DHT22;22228;53.222;7.446;2022-07-18T04:47:22;15.20;99.90
36186;DHT22;22228;53.222;7.446;2022-07-18T04:49:49;15.30;99.90
36186;DHT22;22228;53.222;7.446;2022-07-18T04:52:11;15.30;99.90
36186;DHT22;22228;53.222;7.446;2022-07-18T04:54:34;15.40;99.90
36186;DHT22;22228;53.222;7.446;2022-07-18T04:56:57;15.40;99.90
36186;DHT22;22228;53.222;7.446;2022-07-18T04:59:19;15.50;99.90
36186;DHT22;22228;53.222;7.446;2022-07-18T05:01:41;15.50;99.90
36186;DHT22;22228;53.222;7.446;2022-07-18T05:04:04;15.50;99.90
36186;DHT22;22228;53.222;7.446;2022-07-18T05:06:26;15.60;99.90
36186;DHT22;22228;53.222;7.446;2022-07-18T05:08:48;15.70;99.90
36186;DHT22;22228;53.222;7.446;2022-07-18T05:11:10;15.80;99.90
36186;DHT22;22228;53.222;7.446;2022-07-18T05:13:34;15.90;99.90
36186;DHT22;22228;53.222;7.446;2022-07-18T05:15:56;16.10;99.90
36186;DHT22;22228;53.222;7.446;2022-07-18T05:18:19;16.20;99.90
36186;DHT22;22228;53.222;7.446;2022-07-18T05:20:41;16.40;99.90
36186;DHT22;22228;53.222;7.446;2022-07-18T05:23:04;16.50;99.90
36186;DHT22;22228;53.222;7.446;2022-07-18T05:25:26;16.70;99.90
36186;DHT22;22228;53.222;7.446;2022-07-18T05:27:48;16.80;99.90
36186;DHT22;22228;53.222;7.446;2022-07-18T05:30:13;16.90;99.90
36186;DHT22;22228;53.222;7.446;2022-07-18T05:32:36;16.90;99.90
36186;DHT22;22228;53.222;7.446;2022-07-18T05:34:59;17.00;99.90
36186;DHT22;22228;53.222;7.446;2022-07-18T05:37:21;17.00;99.90
36186;DHT22;22228;53.222;7.446;2022-07-18T05:39:44;17.10;99.90
36186;DHT22;22228;53.222;7.446;2022-07-18T05:42:06;17.20;99.90
36186;DHT22;22228;53.222;7.446;2022-07-18T05:44:28;17.20;99.90
36186;DHT22;22228;53.222;7.446;2022-07-18T05:46:52;17.30;99.90
36186;DHT22;22228;53.222;7.446;2022-07-18T05:49:15;17.40;99.90
36186;DHT22;22228;53.222;7.446;2022-07-18T05:51:38;17.40;99.90
36186;DHT22;22228;53.222;7.446;2022-07-18T05:53:59;17.50;99.90
36186;DHT22;22228;53.222;7.446;2022-07-18T05:56:21;17.60;99.90
36186;DHT22;22228;53.222;7.446;2022-07-18T05:58:44;17.70;99.90
36186;DHT22;22228;53.222;7.446;2022-07-18T06:01:07;17.80;99.90
36186;DHT22;22228;53.222;7.446;2022-07-18T06:03:31;17.90;99.90
36186;DHT22;22228;53.222;7.446;2022-07-18T06:05:53;18.10;99.90
36186;DHT22;22228;53.222;7.446;2022-07-18T06:08:20;18.20;99.90
36186;DHT22;22228;53.222;7.446;2022-07-18T06:10:42;18.30;99.90
36186;DHT22;22228;53.222;7.446;2022-07-18T06:13:06;18.30;99.90
36186;DHT22;22228;53.222;7.446;2022-07-18T06:15:28;18.40;99.90
36186;DHT22;22228;53.222;7.446;2022-07-18T06:17:50;18.40;99.90
36186;DHT22;22228;53.222;7.446;2022-07-18T06:20:14;18.40;99.90
36186;DHT22;22228;53.222;7.446;2022-07-18T06:22:37;18.50;99.90
36186;DHT22;22228;53.222;7.446;2022-07-18T06:24:59;18.70;99.90
36186;DHT22;22228;53.222;7.446;2022-07-18T06:27:22;18.90;99.90
36186;DHT22;22228;53.222;7.446;2022-07-18T06:29:44;19.10;99.90
36186;DHT22;22228;53.222;7.446;2022-07-18T06:32:06;19.30;99.90
36186;DHT22;22228;53.222;7.446;2022-07-18T06:34:28;19.40;99.90
36186;DHT22;22228;53.222;7.446;2022-07-18T06:36:51;19.50;99.90
36186;DHT22;22228;53.222;7.446;2022-07-18T06:39:13;19.50;99.90
36186;DHT22;22228;53.222;7.446;2022-07-18T06:41:38;19.70;99.90
36186;DHT22;22228;53.222;7.446;2022-07-18T06:44:06;19.80;99.90
36186;DHT22;22228;53.222;7.446;2022-07-18T06:46:28;19.90;99.90
36186;DHT22;22228;53.222;7.446;2022-07-18T06:48:50;20.00;99.90
36186;DHT22;22228;53.222;7.446;2022-07-18T06:51:12;20.10;99.90
36186;DHT22;22228;53.222;7.446;2022-07-18T06:53:35;20.20;99.90
36186;DHT22;22228;53.222;7.446;2022-07-18T06:55:58;20.30;99.90
36186;DHT22;22228;53.222;7.446;2022-07-18T06:58:20;20.40;99.90
36186;DHT22;22228;53.222;7.446;2022-07-18T07:00:42;20.50;99.90
36186;DHT22;22228;53.222;7.446;2022-07-18T07:03:04;20.60;99.90
36186;DHT22;22228;53.222;7.446;2022-07-18T07:05:26;20.80;99.90
36186;DHT22;22228;53.222;7.446;2022-07-18T07:07:48;20.90;99.90
36186;DHT22;22228;53.222;7.446;2022-07-18T07:10:12;21.10;99.90
36186;DHT22;22228;53.222;7.446;2022-07-18T07:12:39;21.20;99.90
36186;DHT22;22228;53.222;7.446;2022-07-18T07:15:01;21.40;99.90
36186;DHT22;22228;53.222;7.446;2022-07-18T07:17:23;21.50;99.90
36186;DHT22;22228;53.222;7.446;2022-07-18T07:19:45;21.70;99.90
36186;DHT22;22228;53.222;7.446;2022-07-18T07:22:07;21.80;99.90
36186;DHT22;22228;53.222;7.446;2022-07-18T07:24:30;22.00;99.90
36186;DHT22;22228;53.222;7.446;2022-07-18T07:26:53;22.20;99.90
36186;DHT22;22228;53.222;7.446;2022-07-18T07:29:16;22.40;99.90
36186;DHT22;22228;53.222;7.446;2022-07-18T07:31:38;22.50;99.90
36186;DHT22;22228;53.222;7.446;2022-07-18T07:34:00;22.60;99.90
36186;DHT22;22228;53.222;7.446;2022-07-18T07:36:26;22.70;99.90
36186;DHT22;22228;53.222;7.446;2022-07-18T07:38:48;22.80;99.90
36186;DHT22;22228;53.222;7.446;2022-07-18T07:41:10;22.90;99.90
36186;DHT22;22228;53.222;7.446;2022-07-18T07:43:35;23.00;99.90
36186;DHT22;22228;53.222;7.446;2022-07-18T07:45:59;23.10;99.90
36186;DHT22;22228;53.222;7.446;2022-07-18T07:48:22;23.20;99.90
36186;DHT22;22228;53.222;7.446;2022-07-18T07:50:44;23.30;99.90
36186;DHT22;22228;53.222;7.446;2022-07-18T07:53:06;23.40;99.90
36186;DHT22;22228;53.222;7.446;2022-07-18T07:55:29;23.50;99.90
36186;DHT22;22228;53.222;7.446;2022-07-18T07:57:52;23.50;99.90
36186;DHT22;22228;53.222;7.446;2022-07-18T08:00:15;23.60;99.90
36186;DHT22;22228;53.222;7.446;2022-07-18T08:02:49;23.90;99.90
36186;DHT22;22228;53.222;7.446;2022-07-18T08:05:20;24.00;99.90
36186;DHT22;22228;53.222;7.446;2022-07-18T08:07:42;24.10;99.90
36186;DHT22;22228;53.222;7.446;2022-07-18T08:10:05;24.20;99.90
36186;DHT22;22228;53.222;7.446;2022-07-18T08:12:27;24.20;99.90
36186;DHT22;22228;53.222;7.446;2022-07-18T08:14:49;24.20;99.90
36186;DHT22;22228;53.222;7.446;2022-07-18T08:17:13;24.10;99.90
36186;DHT22;22228;53.222;7.446;2022-07-18T08:19:35;24.10;99.90
36186;DHT22;22228;53.222;7.446;2022-07-18T08:21:57;24.20;99.90
36186;DHT22;22228;53.222;7.446;2022-07-18T08:24:19;24.30;99.90
36186;DHT22;22228;53.222;7.446;2022-07-18T08:26:41;24.40;99.90
36186;DHT22;22228;53.222;7.446;2022-07-18T08:29:03;24.50;99.90
36186;DHT22;22228;53.222;7.446;2022-07-18T08:31:25;24.70;99.90
36186;DHT22;22228;53.222;7.446;2022-07-18T08:33:49;25.00;99.90
36186;DHT22;22228;53.222;7.446;2022-07-18T08:36:11;25.20;99.90
36186;DHT22;22228;53.222;7.446;2022-07-18T08:38:33;25.20;99.90
36186;DHT22;22228;53.222;7.446;2022-07-18T08:40:56;25.20;99.90
36186;DHT22;22228;53.222;7.446;2022-07-18T08:43:20;25.30;99.90
36186;DHT22;22228;53.222;7.446;2022-07-18T08:45:45;25.30;99.90
36186;DHT22;22228;53.222;7.446;2022-07-18T08:48:08;25.40;99.90
36186;DHT22;22228;53.222;7.446;2022-07-18T08:50:32;25.60;99.90
36186;DHT22;22228;53.222;7.446;2022-07-18T08:52:55;25.70;99.90
36186;DHT22;22228;53.222;7.446;2022-07-18T08:55:17;25.70;99.90
36186;DHT22;22228;53.222;7.446;2022-07-18T08:57:47;25.80;99.90
36186;DHT22;22228;53.222;7.446;2022-07-18T09:00:10;26.00;99.90
36186;DHT22;22228;53.222;7.446;2022-07-18T09:02:34;26.10;99.90
36186;DHT22;22228;53.222;7.446;2022-07-18T09:04:56;26.40;99.90
36186;DHT22;22228;53.222;7.446;2022-07-18T09:07:39;26.60;99.90
36186;DHT22;22228;53.222;7.446;2022-07-18T09:10:04;26.50;99.90
36186;DHT22;22228;53.222;7.446;2022-07-18T09:12:27;26.50;99.90
36186;DHT22;22228;53.222;7.446;2022-07-18T09:14:52;26.50;99.90
36186;DHT22;22228;53.222;7.446;2022-07-18T09:17:17;26.40;99.90
36186;DHT22;22228;53.222;7.446;2022-07-18T09:19:41;26.50;99.90
36186;DHT22;22228;53.222;7.446;2022-07-18T09:22:19;26.40;99.90
36186;DHT22;22228;53.222;7.446;2022-07-18T09:24:56;26.30;99.90
36186;DHT22;22228;53.222;7.446;2022-07-18T09:27:28;26.20;99.90
36186;DHT22;22228;53.222;7.446;2022-07-18T09:32:52;26.50;99.90
36186;DHT22;22228;53.222;7.446;2022-07-18T09:35:17;26.50;99.90
36186;DHT22;22228;53.222;7.446;2022-07-18T09:37:40;26.50;99.90
36186;DHT22;22228;53.222;7.446;2022-07-18T09:40:16;26.70;99.90
36186;DHT22;22228;53.222;7.446;2022-07-18T09:42:40;26.90;99.90
36186;DHT22;22228;53.222;7.446;2022-07-18T09:45:04;27.00;99.90
36186;DHT22;22228;53.222;7.446;2022-07-18T09:47:27;27.30;99.90
36186;DHT22;22228;53.222;7.446;2022-07-18T09:49:49;27.30;99.90
36186;DHT22;22228;53.222;7.446;2022-07-18T09:52:11;27.10;99.90
36186;DHT22;22228;53.222;7.446;2022-07-18T09:54:37;27.00;99.90
36186;DHT22;22228;53.222;7.446;2022-07-18T09:57:01;27.00;99.90
36186;DHT22;22228;53.222;7.446;2022-07-18T09:59:23;27.00;99.90
36186;DHT22;22228;53.222;7.446;2022-07-18T10:01:45;27.00;99.90
36186;DHT22;22228;53.222;7.446;2022-07-18T10:04:07;27.00;99.90
36186;DHT22;22228;53.222;7.446;2022-07-18T10:06:30;26.90;99.90
36186;DHT22;22228;53.222;7.446;2022-07-18T10:08:53;26.70;99.90
36186;DHT22;22228;53.222;7.446;2022-07-18T10:11:16;26.80;99.90
36186;DHT22;22228;53.222;7.446;2022-07-18T10:13:40;26.70;99.90
36186;DHT22;22228;53.222;7.446;2022-07-18T10:16:03;26.80;99.90
36186;DHT22;22228;53.222;7.446;2022-07-18T10:18:27;27.00;99.90
36186;DHT22;22228;53.222;7.446;2022-07-18T10:20:52;27.10;99.90
36186;DHT22;22228;53.222;7.446;2022-07-18T10:23:17;27.40;99.90
36186;DHT22;22228;53.222;7.446;2022-07-18T10:25:40;27.30;99.90
36186;DHT22;22228;53.222;7.446;2022-07-18T10:28:07;27.40;99.90
36186;DHT22;22228;53.222;7.446;2022-07-18T10:30:36;27.50;99.90
36186;DHT22;22228;53.222;7.446;2022-07-18T10:32:59;27.70;99.90
36186;DHT22;22228;53.222;7.446;2022-07-18T10:35:57;27.90;99.90
36186;DHT22;22228;53.222;7.446;2022-07-18T10:38:24;27.80;99.90
36186;DHT22;22228;53.222;7.446;2022-07-18T10:41:02;27.80;99.90
36186;DHT22;22228;53.222;7.446;2022-07-18T10:43:43;28.00;99.90
36186;DHT22;22228;53.222;7.446;2022-07-18T10:46:08;28.20;99.90
36186;DHT22;22228;53.222;7.446;2022-07-18T10:48:50;28.50;99.90
36186;DHT22;22228;53.222;7.446;2022-07-18T10:51:14;28.70;99.90
36186;DHT22;22228;53.222;7.446;2022-07-18T10:53:55;28.60;99.90
36186;DHT22;22228;53.222;7.446;2022-07-18T10:56:17;28.70;99.90
36186;DHT22;22228;53.222;7.446;2022-07-18T10:58:39;28.80;99.90
36186;DHT22;22228;53.222;7.446;2022-07-18T11:01:09;28.70;99.90
36186;DHT22;22228;53.222;7.446;2022-07-18T11:03:35;28.80;99.90
36186;DHT22;22228;53.222;7.446;2022-07-18T11:05:57;28.70;99.90
36186;DHT22;22228;53.222;7.446;2022-07-18T11:08:21;29.10;99.90
36186;DHT22;22228;53.222;7.446;2022-07-18T11:13:37;29.60;99.90
36186;DHT22;22228;53.222;7.446;2022-07-18T11:16:01;29.50;99.90
36186;DHT22;22228;53.222;7.446;2022-07-18T11:18:28;29.50;99.90
36186;DHT22;22228;53.222;7.446;2022-07-18T11:20:52;29.50;99.90
36186;DHT22;22228;53.222;7.446;2022-07-18T11:23:17;29.80;99.90
36186;DHT22;22228;53.222;7.446;2022-07-18T11:25:40;30.60;99.90
36186;DHT22;22228;53.222;7.446;2022-07-18T11:28:17;30.80;99.90
36186;DHT22;22228;53.222;7.446;2022-07-18T11:30:41;30.90;99.90
36186;DHT22;22228;53.222;7.446;2022-07-18T11:33:05;30.30;99.90
36186;DHT22;22228;53.222;7.446;2022-07-18T11:35:29;29.60;99.90
36186;DHT22;22228;53.222;7.446;2022-07-18T11:37:52;29.30;99.90
36186;DHT22;22228;53.222;7.446;2022-07-18T11:40:15;29.70;99.90
36186;DHT22;22228;53.222;7.446;2022-07-18T11:42:43;30.20;99.90
36186;DHT22;22228;53.222;7.446;2022-07-18T11:45:08;30.40;99.90
36186;DHT22;22228;53.222;7.446;2022-07-18T11:47:30;30.40;99.90
36186;DHT22;22228;53.222;7.446;2022-07-18T11:49:54;30.30;99.90
36186;DHT22;22228;53.222;7.446;2022-07-18T11:52:18;30.10;99.90
36186;DHT22;22228;53.222;7.446;2022-07-18T11:54:40;30.00;99.90
36186;DHT22;22228;53.222;7.446;2022-07-18T11:57:03;30.20;99.90
36186;DHT22;22228;53.222;7.446;2022-07-18T11:59:35;30.60;99.90
36186;DHT22;22228;53.222;7.446;2022-07-18T12:01:58;31.00;99.90
36186;DHT22;22228;53.222;7.446;2022-07-18T12:04:21;31.50;99.90
36186;DHT22;22228;53.222;7.446;2022-07-18T12:06:44;31.60;99.90
36186;DHT22;22228;53.222;7.446;2022-07-18T12:09:07;32.10;99.90
36186;DHT22;22228;53.222;7.446;2022-07-18T12:11:31;32.20;99.90
36186;DHT22;22228;53.222;7.446;2022-07-18T12:13:56;32.00;99.90
36186;DHT22;22228;53.222;7.446;2022-07-18T12:16:31;32.40;99.90
36186;DHT22;22228;53.222;7.446;2022-07-18T12:18:55;32.80;99.90
36186;DHT22;22228;53.222;7.446;2022-07-18T12:21:18;32.90;99.90
36186;DHT22;22228;53.222;7.446;2022-07-18T12:23:40;32.30;99.90
36186;DHT22;22228;53.222;7.446;2022-07-18T12:26:03;31.70;99.90
36186;DHT22;22228;53.222;7.446;2022-07-18T12:28:26;32.00;99.90
36186;DHT22;22228;53.222;7.446;2022-07-18T12:30:49;32.60;99.90
36186;DHT22;22228;53.222;7.446;2022-07-18T12:33:17;32.90;99.90
36186;DHT22;22228;53.222;7.446;2022-07-18T12:35:40;32.80;99.90
36186;DHT22;22228;53.222;7.446;2022-07-18T12:38:04;33.70;99.90
36186;DHT22;22228;53.222;7.446;2022-07-18T12:40:38;34.40;99.90
36186;DHT22;22228;53.222;7.446;2022-07-18T12:43:04;33.80;96.90
36186;DHT22;22228;53.222;7.446;2022-07-18T12:45:28;33.90;98.30
36186;DHT22;22228;53.222;7.446;2022-07-18T12:47:50;34.70;98.40
36186;DHT22;22228;53.222;7.446;2022-07-18T12:50:12;35.70;94.70
36186;DHT22;22228;53.222;7.446;2022-07-18T12:52:35;36.50;93.60
36186;DHT22;22228;53.222;7.446;2022-07-18T12:54:56;36.50;90.20
36186;DHT22;22228;53.222;7.446;2022-07-18T12:57:19;35.70;94.00
36186;DHT22;22228;53.222;7.446;2022-07-18T12:59:43;35.30;90.20
36186;DHT22;22228;53.222;7.446;2022-07-18T13:02:06;34.90;90.60
36186;DHT22;22228;53.222;7.446;2022-07-18T13:04:28;34.90;90.70
36186;DHT22;22228;53.222;7.446;2022-07-18T13:06:50;35.10;90.80
36186;DHT22;22228;53.222;7.446;2022-07-18T13:09:12;34.50;88.90
36186;DHT22;22228;53.222;7.446;2022-07-18T13:11:34;33.90;88.30
36186;DHT22;22228;53.222;7.446;2022-07-18T13:13:57;33.40;89.90
36186;DHT22;22228;53.222;7.446;2022-07-18T13:16:20;34.00;92.30
36186;DHT22;22228;53.222;7.446;2022-07-18T13:18:42;35.10;91.50
36186;DHT22;22228;53.222;7.446;2022-07-18T13:21:04;34.90;86.40
36186;DHT22;22228;53.222;7.446;2022-07-18T13:23:26;35.40;87.30
36186;DHT22;22228;53.222;7.446;2022-07-18T13:25:48;35.90;88.90
36186;DHT22;22228;53.222;7.446;2022-07-18T13:28:10;36.20;85.20
36186;DHT22;22228;53.222;7.446;2022-07-18T13:30:32;36.00;85.80
36186;DHT22;22228;53.222;7.446;2022-07-18T13:32:56;36.60;81.20
36186;DHT22;22228;53.222;7.446;2022-07-18T13:35:18;37.00;82.60
36186;DHT22;22228;53.222;7.446;2022-07-18T13:37:40;37.20;78.20
36186;DHT22;22228;53.222;7.446;2022-07-18T13:40:02;37.70;78.40
36186;DHT22;22228;53.222;7.446;2022-07-18T13:42:25;38.50;76.60
36186;DHT22;22228;53.222;7.446;2022-07-18T13:44:50;38.30;73.70
36186;DHT22;22228;53.222;7.446;2022-07-18T13:47:12;37.80;68.20
36186;DHT22;22228;53.222;7.446;2022-07-18T13:49:35;37.60;71.80
36186;DHT22;22228;53.222;7.446;2022-07-18T13:51:57;37.10;71.80
36186;DHT22;22228;53.222;7.446;2022-07-18T13:54:19;36.90;73.10
36186;DHT22;22228;53.222;7.446;2022-07-18T13:56:41;37.40;72.00
36186;DHT22;22228;53.222;7.446;2022-07-18T13:59:03;38.00;71.00
36186;DHT22;22228;53.222;7.446;2022-07-18T14:01:25;37.30;65.10
36186;DHT22;22228;53.222;7.446;2022-07-18T14:03:47;36.90;71.40
36186;DHT22;22228;53.222;7.446;2022-07-18T14:06:10;36.60;67.00
36186;DHT22;22228;53.222;7.446;2022-07-18T14:08:33;36.30;68.20
36186;DHT22;22228;53.222;7.446;2022-07-18T14:10:55;35.40;67.60
36186;DHT22;22228;53.222;7.446;2022-07-18T14:13:17;35.30;68.10
36186;DHT22;22228;53.222;7.446;2022-07-18T14:15:39;36.10;66.50
36186;DHT22;22228;53.222;7.446;2022-07-18T14:18:00;37.00;66.50
36186;DHT22;22228;53.222;7.446;2022-07-18T14:20:25;37.90;65.20
36186;DHT22;22228;53.222;7.446;2022-07-18T14:22:48;37.80;63.40
36186;DHT22;22228;53.222;7.446;2022-07-18T14:25:13;39.10;63.50
36186;DHT22;22228;53.222;7.446;2022-07-18T14:27:35;39.50;61.80
36186;DHT22;22228;53.222;7.446;2022-07-18T14:29:57;39.70;58.80
36186;DHT22;22228;53.222;7.446;2022-07-18T14:32:20;40.20;59.90
36186;DHT22;22228;53.222;7.446;2022-07-18T14:34:42;39.70;57.10
36186;DHT22;22228;53.222;7.446;2022-07-18T14:37:04;38.90;55.90
36186;DHT22;22228;53.222;7.446;2022-07-18T14:39:31;38.20;55.80
36186;DHT22;22228;53.222;7.446;2022-07-18T14:41:53;38.20;56.10
36186;DHT22;22228;53.222;7.446;2022-07-18T14:44:16;38.70;57.00
36186;DHT22;22228;53.222;7.446;2022-07-18T14:46:38;39.20;54.80
36186;DHT22;22228;53.222;7.446;2022-07-18T14:48:59;39.00;56.10
36186;DHT22;22228;53.222;7.446;2022-07-18T14:51:23;38.40;53.80
36186;DHT22;22228;53.222;7.446;2022-07-18T14:53:45;36.40;54.50
36186;DHT22;22228;53.222;7.446;2022-07-18T14:56:09;35.80;55.50
36186;DHT22;22228;53.222;7.446;2022-07-18T14:58:31;36.20;55.30
36186;DHT22;22228;53.222;7.446;2022-07-18T15:00:54;36.50;56.50
36186;DHT22;22228;53.222;7.446;2022-07-18T15:03:16;36.60;56.50
36186;DHT22;22228;53.222;7.446;2022-07-18T15:05:58;37.30;55.30
36186;DHT22;22228;53.222;7.446;2022-07-18T15:08:20;36.80;55.10
36186;DHT22;22228;53.222;7.446;2022-07-18T15:10:42;36.00;56.20
36186;DHT22;22228;53.222;7.446;2022-07-18T15:13:05;35.80;56.40